Time;durP1;ratioP1;P1;durP2;ratioP2;P2;SDS_P1;SDS_P2;PMS_P1;PMS_P2;Temp;Humidity;BMP_temperature;BMP_pressure;BME280_temperature;BME280_humidity;BME280_pressure;Samples;Min_cycle;Max_cycle;Signal;HPM_P1;HPM_P2
2023/05/06 00:01:57;;;;;;;5.77;3.60;;;;;;;;;;4974269;28;20218;-72
2023/05/06 00:05:02;;;;;;;7.23;4.47;;;;;;;;;;4951049;28;20191;-72
2023/05/06 00:08:06;;;;;;;5.27;3.70;;;;;;;;;;4962267;28;20665;-71
2023/05/06 00:11:10;;;;;;;6.20;4.07;;;;;;;;;;4962301;28;20202;-71
2023/05/06 00:14:15;;;;;;;4.73;4.00;;;;;;;;;;4974141;28;20547;-71
2023/05/06 00:17:19;;;;;;;7.37;4.50;;;;;;;;;;4973225;28;20685;-72
2023/05/06 00:20:23;;;;;;;8.60;4.17;;;;;;;;;;4951705;28;20178;-71
2023/05/06 00:23:27;;;;;;;5.40;3.90;;;;;;;;;;4962028;28;20191;-71
2023/05/06 00:26:31;;;;;;;4.80;3.87;;;;;;;;;;4974366;28;20190;-71
2023/05/06 00:29:36;;;;;;;6.13;4.17;;;;;;;;;;4963730;28;20183;-71
2023/05/06 00:32:40;;;;;;;7.27;3.83;;;;;;;;;;4965514;28;20215;-71
2023/05/06 00:35:44;;;;;;;5.30;4.27;;;;;;;;;;4965582;28;20183;-71
2023/05/06 00:38:48;;;;;;;5.93;3.93;;;;;;;;;;4966193;28;20630;-71
2023/05/06 00:41:52;;;;;;;5.60;4.17;;;;;;;;;;4977295;28;20211;-71
2023/05/06 00:44:57;;;;;;;4.60;3.83;;;;;;;;;;4954343;28;20520;-71
2023/05/06 00:48:01;;;;;;;5.50;4.20;;;;;;;;;;4977389;28;20515;-71
2023/05/06 00:51:06;;;;;;;4.40;3.87;;;;;;;;;;4954226;28;20179;-71
2023/05/06 00:54:11;;;;;;;6.03;3.97;;;;;;;;;;4976418;28;20206;-71
2023/05/06 00:57:15;;;;;;;7.27;4.40;;;;;;;;;;4965620;28;20634;-71
2023/05/06 01:00:20;;;;;;;4.40;4.00;;;;;;;;;;4977287;28;20178;-71
2023/05/06 01:03:24;;;;;;;5.00;4.30;;;;;;;;;;4965243;28;20179;-71
2023/05/06 01:06:44;;;;;;;5.07;4.10;;;;;;;;;;4964886;28;20524;-71
2023/05/06 01:10:19;;;;;;;5.93;4.40;;;;;;;;;;4954024;28;20191;-71
2023/05/06 01:13:33;;;;;;;6.07;4.10;;;;;;;;;;4964724;28;20211;-70
2023/05/06 01:16:39;;;;;;;5.07;4.30;;;;;;;;;;4954101;28;20203;-71
2023/05/06 01:19:52;;;;;;;6.00;4.00;;;;;;;;;;4976851;28;20182;-71
2023/05/06 01:22:55;;;;;;;5.20;4.10;;;;;;;;;;4964442;28;20697;-71
2023/05/06 01:26:00;;;;;;;5.13;4.20;;;;;;;;;;4953774;28;20175;-71
2023/05/06 01:29:05;;;;;;;6.63;4.17;;;;;;;;;;4953791;28;20633;-71
2023/05/06 01:32:18;;;;;;;5.43;3.87;;;;;;;;;;4964314;28;20558;-71
2023/05/06 01:35:39;;;;;;;6.00;3.90;;;;;;;;;;4964513;28;20551;-71
2023/05/06 01:38:50;;;;;;;8.03;3.33;;;;;;;;;;4976488;28;20187;-71
2023/05/06 01:41:56;;;;;;;5.93;3.87;;;;;;;;;;4953297;28;20226;-71
2023/05/06 01:45:02;;;;;;;6.83;3.93;;;;;;;;;;4964734;28;20511;-71
2023/05/06 01:48:08;;;;;;;6.67;3.77;;;;;;;;;;4976572;28;20187;-71
2023/05/06 01:51:12;;;;;;;6.33;3.37;;;;;;;;;;4953297;28;20214;-71
2023/05/06 01:54:17;;;;;;;7.93;3.50;;;;;;;;;;4976419;28;20669;-71
2023/05/06 01:57:21;;;;;;;7.00;4.10;;;;;;;;;;4964255;28;20186;-71
2023/05/06 02:00:25;;;;;;;8.90;4.60;;;;;;;;;;4963970;28;20179;-71
2023/05/06 02:03:29;;;;;;;6.40;4.50;;;;;;;;;;4975989;28;20179;-71
2023/05/06 02:06:33;;;;;;;6.87;4.80;;;;;;;;;;4963832;28;20178;-71
2023/05/06 02:09:37;;;;;;;5.83;4.03;;;;;;;;;;4964040;28;20182;-71
2023/05/06 02:12:42;;;;;;;5.63;4.13;;;;;;;;;;4975806;28;20214;-71
2023/05/06 02:15:51;;;;;;;7.57;4.83;;;;;;;;;;4963913;28;20685;-72
2023/05/06 02:18:55;;;;;;;4.47;4.07;;;;;;;;;;4975454;28;20265;-71
2023/05/06 02:21:59;;;;;;;8.30;4.50;;;;;;;;;;4975576;28;20226;-71
2023/05/06 02:25:03;;;;;;;5.93;4.33;;;;;;;;;;4963982;28;20179;-71
2023/05/06 02:28:08;;;;;;;5.27;4.63;;;;;;;;;;4963420;28;20179;-71
2023/05/06 02:31:13;;;;;;;5.43;4.70;;;;;;;;;;4963532;28;20218;-71
2023/05/06 02:34:18;;;;;;;7.37;5.13;;;;;;;;;;4963736;28;20679;-71
2023/05/06 02:37:22;;;;;;;7.17;5.10;;;;;;;;;;4963450;28;20187;-71
2023/05/06 02:40:26;;;;;;;5.73;5.13;;;;;;;;;;4952636;28;20198;-71
2023/05/06 02:43:32;;;;;;;7.87;4.53;;;;;;;;;;4975236;28;20281;-71
2023/05/06 02:46:55;;;;;;;5.00;4.40;;;;;;;;;;4965911;28;20191;-71
2023/05/06 02:50:18;;;;;;;10.17;4.87;;;;;;;;;;4975149;28;20187;-71
2023/05/06 02:53:22;;;;;;;7.30;4.50;;;;;;;;;;4951947;28;20191;-71
2023/05/06 02:56:26;;;;;;;7.63;5.20;;;;;;;;;;4975086;28;20171;-71
2023/05/06 02:59:30;;;;;;;5.83;4.93;;;;;;;;;;4962876;28;20534;-71
2023/05/06 03:02:34;;;;;;;6.53;4.93;;;;;;;;;;4962749;28;20681;-71
2023/05/06 03:05:39;;;;;;;5.60;4.93;;;;;;;;;;4951908;28;20179;-71
2023/05/06 03:08:43;;;;;;;6.03;4.27;;;;;;;;;;4974789;28;20179;-71
2023/05/06 03:11:47;;;;;;;5.80;4.13;;;;;;;;;;4962767;28;20227;-72
2023/05/06 03:14:52;;;;;;;5.43;4.23;;;;;;;;;;4951783;28;20211;-72
2023/05/06 03:17:56;;;;;;;5.27;4.43;;;;;;;;;;4962453;28;20680;-72
2023/05/06 03:21:01;;;;;;;5.30;4.80;;;;;;;;;;4951905;28;20187;-72
2023/05/06 03:24:07;;;;;;;6.37;5.00;;;;;;;;;;4962615;28;20194;-72
2023/05/06 03:27:13;;;;;;;6.87;4.13;;;;;;;;;;4951672;28;20186;-72
2023/05/06 03:30:18;;;;;;;4.73;3.83;;;;;;;;;;4962501;28;20198;-72
2023/05/06 03:33:24;;;;;;;6.13;4.60;;;;;;;;;;4951782;28;20198;-72
2023/05/06 03:36:28;;;;;;;7.07;4.83;;;;;;;;;;4951536;28;20175;-72
2023/05/06 03:39:32;;;;;;;5.63;4.40;;;;;;;;;;4962732;28;20203;-72
2023/05/06 03:42:38;;;;;;;5.60;5.00;;;;;;;;;;4962475;28;20222;-72
2023/05/06 03:45:43;;;;;;;6.50;5.40;;;;;;;;;;4951881;28;20183;-72
2023/05/06 03:48:47;;;;;;;6.90;5.60;;;;;;;;;;4951308;28;20191;-72
2023/05/06 03:51:55;;;;;;;7.77;5.73;;;;;;;;;;4951045;28;20218;-72
2023/05/06 03:55:01;;;;;;;7.53;4.90;;;;;;;;;;4951862;28;20206;-72
2023/05/06 03:58:07;;;;;;;7.20;5.17;;;;;;;;;;4974003;28;20182;-72
2023/05/06 04:01:11;;;;;;;9.00;5.63;;;;;;;;;;4951425;28;20563;-72
2023/05/06 04:04:15;;;;;;;6.97;5.10;;;;;;;;;;4963142;28;20183;-72
2023/05/06 04:07:20;;;;;;;8.77;4.83;;;;;;;;;;4966437;28;20183;-72
2023/05/06 04:10:24;;;;;;;4.73;4.23;;;;;;;;;;4955150;28;20537;-72
2023/05/06 04:13:31;;;;;;;4.97;4.47;;;;;;;;;;4966174;28;20183;-71
2023/05/06 04:16:37;;;;;;;7.07;5.03;;;;;;;;;;4966044;28;20195;-72
2023/05/06 04:19:42;;;;;;;6.00;4.93;;;;;;;;;;4954500;28;20199;-72
2023/05/06 04:22:46;;;;;;;5.60;4.47;;;;;;;;;;4965387;28;20222;-72
2023/05/06 04:25:51;;;;;;;7.97;5.70;;;;;;;;;;4954355;28;20654;-72
2023/05/06 04:28:58;;;;;;;6.70;5.43;;;;;;;;;;4954943;28;20207;-72
2023/05/06 04:32:04;;;;;;;8.13;6.47;;;;;;;;;;4966089;28;20219;-72
2023/05/06 04:35:11;;;;;;;6.13;5.47;;;;;;;;;;4965712;28;20691;-71
2023/05/06 04:38:16;;;;;;;10.30;5.87;;;;;;;;;;4965514;28;20543;-72
2023/05/06 04:41:22;;;;;;;7.47;5.00;;;;;;;;;;4954641;28;20219;-72
2023/05/06 04:44:27;;;;;;;7.83;5.67;;;;;;;;;;4965568;28;20635;-71
2023/05/06 04:47:32;;;;;;;7.23;6.23;;;;;;;;;;4954267;28;20175;-72
2023/05/06 04:50:37;;;;;;;5.93;5.33;;;;;;;;;;4954633;28;20175;-72
2023/05/06 04:53:41;;;;;;;9.47;6.23;;;;;;;;;;4965440;28;20182;-72
2023/05/06 04:56:46;;;;;;;9.27;6.33;;;;;;;;;;4965149;28;20175;-72
2023/05/06 04:59:52;;;;;;;6.27;5.63;;;;;;;;;;4965027;28;20199;-71
2023/05/06 05:02:57;;;;;;;7.17;6.07;;;;;;;;;;4954113;28;20214;-70
2023/05/06 05:06:01;;;;;;;8.80;6.60;;;;;;;;;;4953969;28;20175;-72
2023/05/06 05:09:06;;;;;;;7.67;6.83;;;;;;;;;;4977076;28;20187;-72
2023/05/06 05:12:11;;;;;;;7.57;6.50;;;;;;;;;;4965270;28;20215;-72
2023/05/06 05:15:20;;;;;;;8.17;6.43;;;;;;;;;;4964824;28;20206;-72
2023/05/06 05:18:24;;;;;;;11.17;7.33;;;;;;;;;;5051161;23;20227;-71
2023/05/06 05:21:32;;;;;;;15.63;12.47;;;;;;;;;;5057374;28;20216;-71
2023/05/06 05:24:37;;;;;;;9.40;7.60;;;;;;;;;;5055269;28;20183;-71
2023/05/06 05:27:41;;;;;;;10.73;9.00;;;;;;;;;;5055534;28;20184;-71
2023/05/06 05:30:46;;;;;;;14.07;12.47;;;;;;;;;;5043260;28;20180;-71
2023/05/06 05:33:50;;;;;;;10.63;9.10;;;;;;;;;;5020669;28;20183;-71
2023/05/06 05:36:58;;;;;;;14.27;11.57;;;;;;;;;;5043102;28;20176;-71
2023/05/06 05:40:04;;;;;;;14.97;10.90;;;;;;;;;;5043178;28;20542;-72
2023/05/06 05:43:12;;;;;;;31.53;24.87;;;;;;;;;;5054439;28;20231;-72
2023/05/06 05:46:19;;;;;;;12.83;11.53;;;;;;;;;;5031757;28;20180;-71
2023/05/06 05:49:25;;;;;;;9.73;8.40;;;;;;;;;;5042895;28;20662;-72
2023/05/06 05:52:31;;;;;;;12.17;10.77;;;;;;;;;;5054839;28;20216;-71
2023/05/06 05:55:35;;;;;;;13.07;11.73;;;;;;;;;;5042786;28;20563;-71
2023/05/06 05:58:39;;;;;;;11.20;9.03;;;;;;;;;;5054182;28;20187;-72
2023/05/06 06:01:43;;;;;;;9.20;7.83;;;;;;;;;;5031290;28;20212;-71
2023/05/06 06:04:48;;;;;;;9.17;7.83;;;;;;;;;;5042826;28;20638;-71
2023/05/06 06:07:52;;;;;;;11.17;10.07;;;;;;;;;;5031490;28;20200;-71
2023/05/06 06:10:56;;;;;;;10.73;9.63;;;;;;;;;;5053605;28;20562;-71
2023/05/06 06:14:05;;;;;;;10.07;8.87;;;;;;;;;;5042577;28;20176;-72
2023/05/06 06:17:10;;;;;;;10.70;8.33;;;;;;;;;;5041890;28;20682;-72
2023/05/06 06:20:14;;;;;;;8.60;7.70;;;;;;;;;;5042209;28;20665;-72
2023/05/06 06:23:18;;;;;;;9.03;7.50;;;;;;;;;;5054512;28;20195;-72
2023/05/06 06:26:22;;;;;;;9.67;8.40;;;;;;;;;;5030365;28;20195;-71
2023/05/06 06:29:26;;;;;;;10.13;8.07;;;;;;;;;;5030618;28;20180;-71
2023/05/06 06:32:30;;;;;;;11.63;10.43;;;;;;;;;;5042045;28;20215;-71
2023/05/06 06:35:34;;;;;;;8.70;7.77;;;;;;;;;;5053369;28;20231;-71
2023/05/06 06:38:39;;;;;;;9.17;7.33;;;;;;;;;;5054281;28;20199;-71
2023/05/06 06:41:43;;;;;;;7.80;7.00;;;;;;;;;;5054119;28;20690;-71
2023/05/06 06:44:47;;;;;;;8.50;5.20;;;;;;;;;;5041853;28;20195;-71
2023/05/06 06:47:51;;;;;;;8.13;7.33;;;;;;;;;;5042047;28;20199;-71
2023/05/06 06:50:55;;;;;;;6.20;5.30;;;;;;;;;;5054013;28;20199;-71
2023/05/06 06:54:00;;;;;;;8.40;6.53;;;;;;;;;;5054144;28;20199;-71
2023/05/06 06:57:05;;;;;;;5.77;5.27;;;;;;;;;;5053751;28;20219;-71
2023/05/06 07:00:09;;;;;;;7.07;4.87;;;;;;;;;;5054200;28;20172;-71
2023/05/06 07:03:18;;;;;;;8.90;5.40;;;;;;;;;;5054250;28;20216;-71
2023/05/06 07:06:21;;;;;;;6.93;5.70;;;;;;;;;;5053475;28;20180;-72
2023/05/06 07:09:26;;;;;;;5.93;4.30;;;;;;;;;;5053847;28;20626;-72
2023/05/06 07:12:30;;;;;;;6.10;5.47;;;;;;;;;;5041507;28;20219;-73
2023/05/06 07:15:34;;;;;;;7.73;5.87;;;;;;;;;;5053320;28;20212;-73
2023/05/06 07:18:38;;;;;;;7.50;5.57;;;;;;;;;;5053431;28;20654;-73
2023/05/06 07:21:42;;;;;;;6.53;5.60;;;;;;;;;;5041042;28;20220;-73
2023/05/06 07:24:47;;;;;;;6.10;5.37;;;;;;;;;;5053807;28;20180;-73
2023/05/06 07:27:50;;;;;;;5.90;5.30;;;;;;;;;;5041120;28;20180;-74
2023/05/06 07:30:55;;;;;;;6.23;5.70;;;;;;;;;;5030339;28;20184;-73
2023/05/06 07:33:59;;;;;;;6.97;6.27;;;;;;;;;;5053167;28;20180;-73
2023/05/06 07:37:03;;;;;;;6.53;5.93;;;;;;;;;;5053274;28;20674;-74
2023/05/06 07:40:08;;;;;;;6.73;6.13;;;;;;;;;;5060101;28;20176;-74
2023/05/06 07:43:12;;;;;;;9.40;6.23;;;;;;;;;;5036076;28;20219;-74
2023/05/06 07:46:16;;;;;;;7.00;6.30;;;;;;;;;;5060503;28;20176;-73
2023/05/06 07:49:20;;;;;;;6.67;5.70;;;;;;;;;;5059866;28;20626;-74
2023/05/06 07:52:25;;;;;;;8.63;6.17;;;;;;;;;;5059767;28;20219;-74
2023/05/06 07:55:30;;;;;;;8.57;6.73;;;;;;;;;;5059716;28;20563;-74
2023/05/06 07:58:34;;;;;;;6.23;5.07;;;;;;;;;;5048059;28;20642;-74
2023/05/06 08:01:38;;;;;;;9.13;5.50;;;;;;;;;;5059969;28;20215;-74
2023/05/06 08:04:43;;;;;;;7.23;5.40;;;;;;;;;;5047300;28;20192;-74
2023/05/06 08:07:49;;;;;;;6.07;5.30;;;;;;;;;;5059867;28;20180;-73
2023/05/06 08:10:54;;;;;;;8.07;5.63;;;;;;;;;;5059578;28;20180;-74
2023/05/06 08:13:58;;;;;;;5.90;4.67;;;;;;;;;;5059466;28;20180;-73
2023/05/06 08:17:02;;;;;;;10.40;8.63;;;;;;;;;;5047211;28;20231;-74
2023/05/06 08:20:07;;;;;;;5.83;5.07;;;;;;;;;;5059934;28;20176;-74
2023/05/06 08:23:11;;;;;;;5.10;4.60;;;;;;;;;;5047332;28;20215;-73
2023/05/06 08:26:15;;;;;;;7.33;5.30;;;;;;;;;;5047214;28;20630;-73
2023/05/06 08:29:19;;;;;;;9.23;4.17;;;;;;;;;;5059599;28;20184;-73
2023/05/06 08:32:23;;;;;;;6.47;3.90;;;;;;;;;;5059568;28;20555;-74
2023/05/06 08:35:28;;;;;;;4.20;3.80;;;;;;;;;;5059175;28;20176;-74
2023/05/06 08:38:32;;;;;;;6.57;3.50;;;;;;;;;;5047334;28;20184;-74
2023/05/06 08:41:37;;;;;;;3.87;3.43;;;;;;;;;;5047069;28;20223;-74
2023/05/06 08:44:42;;;;;;;4.73;2.80;;;;;;;;;;5035396;28;20184;-74
2023/05/06 08:47:47;;;;;;;6.47;3.10;;;;;;;;;;5046966;28;20169;-74
2023/05/06 08:50:53;;;;;;;5.00;4.20;;;;;;;;;;5056135;28;20176;-73
2023/05/06 08:54:00;;;;;;;3.67;3.30;;;;;;;;;;5043972;28;20647;-73
2023/05/06 08:57:07;;;;;;;3.70;3.40;;;;;;;;;;5043577;28;20212;-73
2023/05/06 09:00:11;;;;;;;5.07;3.40;;;;;;;;;;5043658;28;20176;-73
2023/05/06 09:03:16;;;;;;;4.43;3.47;;;;;;;;;;5055922;28;20566;-73
2023/05/06 09:06:21;;;;;;;3.33;2.70;;;;;;;;;;5055877;28;20176;-72
2023/05/06 09:09:25;;;;;;;3.83;3.10;;;;;;;;;;5055607;28;20177;-74
2023/05/06 09:12:29;;;;;;;4.77;3.03;;;;;;;;;;5043609;28;20218;-73
2023/05/06 09:15:40;;;;;;;3.37;2.77;;;;;;;;;;5055694;28;20181;-73
2023/05/06 09:18:45;;;;;;;2.33;2.13;;;;;;;;;;5055308;28;20202;-73
2023/05/06 09:21:50;;;;;;;3.40;2.40;;;;;;;;;;5031793;28;20222;-73
2023/05/06 09:24:55;;;;;;;3.83;2.53;;;;;;;;;;5055612;28;20183;-73
2023/05/06 09:28:08;;;;;;;3.75;2.20;;;;;;;;;;5043309;28;20175;-74
2023/05/06 09:31:15;;;;;;;2.60;1.80;;;;;;;;;;5031001;28;20219;-73
2023/05/06 09:34:20;;;;;;;4.33;2.27;;;;;;;;;;5042423;28;20177;-73
2023/05/06 09:37:27;;;;;;;2.13;1.90;;;;;;;;;;5054602;28;20694;-72
2023/05/06 09:40:32;;;;;;;2.50;1.80;;;;;;;;;;5054972;28;20207;-73
2023/05/06 09:43:40;;;;;;;4.85;2.30;;;;;;;;;;5055009;28;20535;-73
2023/05/06 09:46:45;;;;;;;3.80;2.30;;;;;;;;;;5042883;28;20633;-72
2023/05/06 09:49:49;;;;;;;3.43;2.67;;;;;;;;;;5055152;28;20183;-73
2023/05/06 09:52:54;;;;;;;3.10;2.00;;;;;;;;;;5055127;28;20214;-73
2023/05/06 09:56:00;;;;;;;3.90;2.50;;;;;;;;;;5042478;28;20223;-72
2023/05/06 09:59:05;;;;;;;2.40;2.20;;;;;;;;;;5042258;28;20194;-73
2023/05/06 10:02:12;;;;;;;6.22;2.30;;;;;;;;;;5053816;28;20212;-72
2023/05/06 10:05:16;;;;;;;3.70;2.20;;;;;;;;;;5054603;28;20201;-73
2023/05/06 10:08:25;;;;;;;7.43;3.67;;;;;;;;;;5042126;28;20194;-72
2023/05/06 10:11:30;;;;;;;7.07;4.67;;;;;;;;;;5042022;28;20219;-72
2023/05/06 10:14:35;;;;;;;2.87;2.03;;;;;;;;;;5030624;28;20183;-72
2023/05/06 10:17:41;;;;;;;4.80;1.90;;;;;;;;;;5041999;28;20220;-72
2023/05/06 10:20:48;;;;;;;8.37;2.20;;;;;;;;;;5041914;28;20529;-72
2023/05/06 10:24:00;;;;;;;2.30;1.80;;;;;;;;;;5054294;28;20183;-73
2023/05/06 10:27:05;;;;;;;2.00;1.63;;;;;;;;;;5054640;28;20178;-72
2023/05/06 10:30:11;;;;;;;2.00;1.60;;;;;;;;;;5054185;28;20187;-72
2023/05/06 10:33:16;;;;;;;2.50;1.73;;;;;;;;;;5053902;28;20213;-72
2023/05/06 10:36:26;;;;;;;5.43;1.27;;;;;;;;;;5054115;28;20207;-72
2023/05/06 10:39:31;;;;;;;6.20;1.63;;;;;;;;;;5043984;28;20192;-71
2023/05/06 10:42:36;;;;;;;2.10;1.42;;;;;;;;;;5055794;28;20209;-72
2023/05/06 10:45:59;;;;;;;3.45;1.38;;;;;;;;;;5041864;28;20186;-72
2023/05/06 10:49:03;;;;;;;1.98;1.33;;;;;;;;;;5054261;28;20188;-72
2023/05/06 10:52:12;;;;;;;2.75;0.95;;;;;;;;;;5041727;28;20212;-73
2023/05/06 10:55:46;;;;;;;5.45;1.42;;;;;;;;;;5041571;28;20179;-73
2023/05/06 10:58:50;;;;;;;2.83;1.20;;;;;;;;;;5041996;28;20187;-73
2023/05/06 11:02:07;;;;;;;3.83;1.20;;;;;;;;;;5053831;28;20661;-73
2023/05/06 11:05:11;;;;;;;1.13;0.90;;;;;;;;;;5053621;28;20180;-73
2023/05/06 11:08:21;;;;;;;3.10;1.30;;;;;;;;;;5041224;28;20176;-73
2023/05/06 11:11:47;;;;;;;5.30;1.20;;;;;;;;;;5041239;28;20222;-73
2023/05/06 11:14:51;;;;;;;2.08;1.42;;;;;;;;;;5053420;28;20184;-73
2023/05/06 11:17:55;;;;;;;2.60;1.33;;;;;;;;;;5053115;28;20237;-73
2023/05/06 11:20:59;;;;;;;2.92;1.20;;;;;;;;;;5018419;28;20178;-73
2023/05/06 11:24:03;;;;;;;2.15;1.25;;;;;;;;;;5053556;28;20185;-73
2023/05/06 11:27:09;;;;;;;4.43;1.52;;;;;;;;;;5053911;28;20273;-73
2023/05/06 11:30:14;;;;;;;3.83;1.45;;;;;;;;;;5053472;28;20187;-73
2023/05/06 11:33:20;;;;;;;4.05;1.35;;;;;;;;;;5053580;28;20178;-72
2023/05/06 11:36:27;;;;;;;2.70;1.63;;;;;;;;;;5053229;28;20177;-72
2023/05/06 11:39:33;;;;;;;2.63;1.10;;;;;;;;;;5041153;28;20202;-72
2023/05/06 11:42:37;;;;;;;2.90;1.50;;;;;;;;;;5041171;28;20700;-73
2023/05/06 11:45:46;;;;;;;2.83;1.38;;;;;;;;;;5053033;28;20176;-72
2023/05/06 11:48:50;;;;;;;8.82;1.45;;;;;;;;;;5053594;28;20176;-72
2023/05/06 11:51:58;;;;;;;1.75;1.35;;;;;;;;;;5053163;28;20213;-72
2023/05/06 11:55:06;;;;;;;2.70;1.10;;;;;;;;;;5040965;28;20186;-73
2023/05/06 11:58:18;;;;;;;3.10;1.15;;;;;;;;;;5040755;28;20224;-72
2023/05/06 12:01:22;;;;;;;1.98;1.25;;;;;;;;;;5040905;28;20223;-72
2023/05/06 12:04:36;;;;;;;1.67;1.20;;;;;;;;;;5040873;28;20187;-72
2023/05/06 12:07:42;;;;;;;2.60;1.30;;;;;;;;;;5053314;28;20181;-72
2023/05/06 12:10:46;;;;;;;1.67;1.40;;;;;;;;;;5052795;28;20202;-72
2023/05/06 12:13:50;;;;;;;4.15;1.10;;;;;;;;;;5040703;28;20195;-72
2023/05/06 12:16:55;;;;;;;1.60;1.02;;;;;;;;;;5052526;28;20226;-72
2023/05/06 12:19:59;;;;;;;2.65;1.20;;;;;;;;;;5053161;28;20208;-72
2023/05/06 12:23:10;;;;;;;2.08;1.00;;;;;;;;;;5029250;28;20336;-73
2023/05/06 12:26:14;;;;;;;4.10;1.50;;;;;;;;;;5044171;28;20186;-71
2023/05/06 12:29:18;;;;;;;4.72;3.92;;;;;;;;;;5056089;28;20193;-72
2023/05/06 12:32:22;;;;;;;4.88;3.33;;;;;;;;;;5043878;28;20225;-72
2023/05/06 12:35:30;;;;;;;3.75;1.75;;;;;;;;;;5056044;28;20179;-72
2023/05/06 12:38:34;;;;;;;1.40;0.73;;;;;;;;;;5056128;28;20210;-72
2023/05/06 12:41:40;;;;;;;3.05;1.10;;;;;;;;;;5055929;28;20216;-72
2023/05/06 12:44:45;;;;;;;4.57;2.42;;;;;;;;;;5056166;28;20182;-72
2023/05/06 12:47:57;;;;;;;6.03;3.35;;;;;;;;;;5056366;28;20664;-72
2023/05/06 12:51:16;;;;;;;14.85;7.40;;;;;;;;;;5055950;28;20187;-73
2023/05/06 12:54:30;;;;;;;2.78;1.30;;;;;;;;;;5043762;28;20186;-74
2023/05/06 12:57:34;;;;;;;17.88;9.70;;;;;;;;;;5056147;28;20558;-72
2023/05/06 13:00:38;;;;;;;3.25;1.48;;;;;;;;;;5055726;28;20190;-72
2023/05/06 13:03:42;;;;;;;5.53;1.70;;;;;;;;;;5055521;28;20663;-72
2023/05/06 13:06:48;;;;;;;2.88;0.88;;;;;;;;;;5055765;28;20633;-72
2023/05/06 13:09:52;;;;;;;2.20;1.05;;;;;;;;;;5043895;28;20177;-72
2023/05/06 13:12:56;;;;;;;2.95;0.70;;;;;;;;;;5055284;28;20225;-72
2023/05/06 13:16:00;;;;;;;2.47;0.80;;;;;;;;;;5043061;28;20254;-72
2023/05/06 13:19:04;;;;;;;1.23;0.90;;;;;;;;;;5043636;28;20206;-73
2023/05/06 13:22:08;;;;;;;2.78;1.25;;;;;;;;;;5042980;28;20213;-73
2023/05/06 13:25:12;;;;;;;2.72;1.20;;;;;;;;;;5043222;28;20179;-73
2023/05/06 13:28:16;;;;;;;4.80;1.10;;;;;;;;;;5055694;28;20170;-73
2023/05/06 13:31:20;;;;;;;2.20;0.90;;;;;;;;;;5031519;28;20689;-73
2023/05/06 13:34:24;;;;;;;3.40;1.00;;;;;;;;;;5055147;28;20201;-74
2023/05/06 13:37:28;;;;;;;1.60;0.90;;;;;;;;;;5042383;28;20203;-73
2023/05/06 13:40:33;;;;;;;2.63;1.10;;;;;;;;;;5055559;28;20179;-72
2023/05/06 13:43:37;;;;;;;1.67;0.93;;;;;;;;;;5042788;28;20177;-72
2023/05/06 13:46:41;;;;;;;1.13;0.90;;;;;;;;;;5054755;28;20179;-73
2023/05/06 13:49:45;;;;;;;1.30;0.95;;;;;;;;;;5054961;28;20175;-73
2023/05/06 13:52:50;;;;;;;4.70;1.15;;;;;;;;;;5054535;28;20213;-74
2023/05/06 13:55:54;;;;;;;1.67;0.80;;;;;;;;;;5042583;28;20197;-73
2023/05/06 13:58:58;;;;;;;3.35;1.98;;;;;;;;;;5042728;28;20667;-73
2023/05/06 14:02:03;;;;;;;1.83;0.95;;;;;;;;;;5054642;28;20221;-73
2023/05/06 14:05:08;;;;;;;1.35;0.80;;;;;;;;;;5054867;28;20199;-73
2023/05/06 14:08:12;;;;;;;5.10;3.33;;;;;;;;;;5054842;28;20194;-73
2023/05/06 14:11:16;;;;;;;1.58;0.90;;;;;;;;;;5055017;28;20215;-72
2023/05/06 14:14:20;;;;;;;1.38;1.27;;;;;;;;;;5054602;28;20527;-73
2023/05/06 14:17:25;;;;;;;1.58;1.25;;;;;;;;;;5054551;28;20701;-73
2023/05/06 14:20:29;;;;;;;1.85;1.00;;;;;;;;;;5079982;22;20238;-73
2023/05/06 14:23:33;;;;;;;0.93;0.80;;;;;;;;;;5054204;28;20207;-73
2023/05/06 14:26:37;;;;;;;1.42;0.73;;;;;;;;;;5041944;28;20188;-73
2023/05/06 14:29:42;;;;;;;1.80;1.25;;;;;;;;;;5054618;28;20172;-73
2023/05/06 14:32:46;;;;;;;0.50;0.50;;;;;;;;;;5042096;28;20218;-72
2023/05/06 14:35:51;;;;;;;1.90;0.73;;;;;;;;;;5054356;28;20185;-73
2023/05/06 14:38:55;;;;;;;1.40;0.60;;;;;;;;;;5042026;28;20220;-73
2023/05/06 14:41:59;;;;;;;2.40;0.50;;;;;;;;;;5054024;28;20218;-71
2023/05/06 14:45:04;;;;;;;2.05;0.70;;;;;;;;;;5053740;28;20203;-72
2023/05/06 14:48:09;;;;;;;4.88;0.70;;;;;;;;;;5053130;28;20195;-71
2023/05/06 14:51:13;;;;;;;1.38;0.80;;;;;;;;;;5053868;28;20217;-71
2023/05/06 14:54:17;;;;;;;1.85;0.50;;;;;;;;;;5053866;28;20189;-73
2023/05/06 14:57:22;;;;;;;0.95;0.75;;;;;;;;;;5053458;28;20207;-73
2023/05/06 15:00:26;;;;;;;1.15;0.70;;;;;;;;;;5053568;28;20198;-72
2023/05/06 15:03:30;;;;;;;2.15;0.50;;;;;;;;;;5041232;28;20184;-73
2023/05/06 15:06:35;;;;;;;2.92;0.50;;;;;;;;;;5053700;28;20520;-71
2023/05/06 15:09:42;;;;;;;3.53;0.90;;;;;;;;;;5041673;28;20187;-73
2023/05/06 15:12:46;;;;;;;1.48;0.80;;;;;;;;;;5053459;28;20214;-71
2023/05/06 15:15:51;;;;;;;1.38;0.60;;;;;;;;;;5029815;28;20527;-71
2023/05/06 15:18:55;;;;;;;4.15;0.68;;;;;;;;;;5053681;28;20547;-71
2023/05/06 15:21:59;;;;;;;3.42;0.80;;;;;;;;;;5053160;28;20559;-72
2023/05/06 15:25:03;;;;;;;4.07;0.80;;;;;;;;;;5053668;28;20182;-73
2023/05/06 15:28:08;;;;;;;1.98;0.70;;;;;;;;;;5053345;28;20184;-72
2023/05/06 15:31:12;;;;;;;2.38;0.60;;;;;;;;;;5053303;28;20238;-73
2023/05/06 15:34:19;;;;;;;3.15;0.90;;;;;;;;;;5053307;28;20181;-73
2023/05/06 15:37:23;;;;;;;1.30;0.70;;;;;;;;;;5053242;28;20181;-73
2023/05/06 15:40:28;;;;;;;3.70;0.68;;;;;;;;;;5053090;28;20655;-73
2023/05/06 15:43:32;;;;;;;1.58;0.70;;;;;;;;;;5053330;28;20527;-71
2023/05/06 15:46:36;;;;;;;2.45;1.13;;;;;;;;;;5029836;28;20180;-73
2023/05/06 15:49:41;;;;;;;2.58;1.17;;;;;;;;;;5053138;28;20188;-72
2023/05/06 15:52:45;;;;;;;228.37;130.00;;;;;;;;;;5052734;28;20219;-72
2023/05/06 15:55:49;;;;;;;37.83;22.50;;;;;;;;;;5052778;28;20205;-73
2023/05/06 15:58:54;;;;;;;7.33;4.07;;;;;;;;;;5053188;28;20215;-73
2023/05/06 16:01:58;;;;;;;10.40;9.70;;;;;;;;;;5056919;28;20216;-72
2023/05/06 16:05:03;;;;;;;2.33;1.70;;;;;;;;;;5057293;28;20178;-72
2023/05/06 16:08:07;;;;;;;2.00;0.70;;;;;;;;;;5056742;28;20173;-72
2023/05/06 16:11:11;;;;;;;0.97;0.70;;;;;;;;;;5056951;28;20173;-73
2023/05/06 16:14:15;;;;;;;1.13;0.60;;;;;;;;;;5056632;28;20183;-73
2023/05/06 16:17:19;;;;;;;0.67;0.57;;;;;;;;;;5056854;28;20549;-73
2023/05/06 16:20:24;;;;;;;2.90;0.90;;;;;;;;;;5044376;28;20198;-72
2023/05/06 16:23:28;;;;;;;1.07;0.70;;;;;;;;;;5056984;28;20179;-72
2023/05/06 16:26:32;;;;;;;1.23;0.80;;;;;;;;;;5056698;28;20181;-72
2023/05/06 16:29:36;;;;;;;10.50;1.10;;;;;;;;;;5056825;28;20175;-72
2023/05/06 16:32:40;;;;;;;2.43;0.77;;;;;;;;;;5056248;28;20226;-72
2023/05/06 16:35:45;;;;;;;5.50;0.90;;;;;;;;;;5056625;28;20185;-72
2023/05/06 16:38:49;;;;;;;4.00;0.80;;;;;;;;;;5056676;28;20663;-72
2023/05/06 16:41:53;;;;;;;1.07;0.60;;;;;;;;;;5044049;28;20212;-72
2023/05/06 16:44:57;;;;;;;0.73;0.50;;;;;;;;;;5043800;28;20185;-72
2023/05/06 16:48:01;;;;;;;2.20;1.20;;;;;;;;;;5056477;28;20181;-72
2023/05/06 16:51:05;;;;;;;3.03;1.13;;;;;;;;;;5056224;28;20180;-72
2023/05/06 16:54:09;;;;;;;1.17;0.70;;;;;;;;;;5055802;28;20188;-72
2023/05/06 16:57:13;;;;;;;2.10;0.70;;;;;;;;;;5044005;28;20192;-72
2023/05/06 17:00:18;;;;;;;2.17;0.80;;;;;;;;;;5043890;28;20172;-72
2023/05/06 17:03:22;;;;;;;6.40;1.00;;;;;;;;;;5043897;28;20177;-72
2023/05/06 17:06:30;;;;;;;1.63;0.73;;;;;;;;;;5043516;28;20176;-72
2023/05/06 17:09:34;;;;;;;1.73;0.60;;;;;;;;;;5043355;28;20172;-72
2023/05/06 17:12:38;;;;;;;2.40;0.93;;;;;;;;;;5055268;28;20208;-72
2023/05/06 17:15:42;;;;;;;1.83;0.80;;;;;;;;;;5055476;28;20176;-72
2023/05/06 17:18:46;;;;;;;1.33;0.73;;;;;;;;;;5055314;28;20551;-72
2023/05/06 17:21:50;;;;;;;2.33;1.00;;;;;;;;;;5043018;28;20216;-72
2023/05/06 17:24:55;;;;;;;11.70;1.27;;;;;;;;;;5055850;28;20180;-72
2023/05/06 17:27:59;;;;;;;3.67;1.00;;;;;;;;;;5055788;28;20176;-72
2023/05/06 17:31:03;;;;;;;5.33;1.20;;;;;;;;;;5043218;28;20184;-72
2023/05/06 17:34:07;;;;;;;5.67;1.03;;;;;;;;;;5043430;28;20623;-72
2023/05/06 17:37:11;;;;;;;7.80;1.43;;;;;;;;;;5055581;28;20204;-72
2023/05/06 17:40:16;;;;;;;5.20;0.90;;;;;;;;;;5042914;28;20227;-72
2023/05/06 17:43:20;;;;;;;6.63;1.17;;;;;;;;;;5055282;28;20184;-72
2023/05/06 17:46:24;;;;;;;4.07;1.00;;;;;;;;;;5042601;28;20192;-72
2023/05/06 17:49:28;;;;;;;2.93;0.90;;;;;;;;;;5055386;28;20195;-72
2023/05/06 17:52:32;;;;;;;3.47;0.70;;;;;;;;;;5042569;28;20223;-72
2023/05/06 17:55:36;;;;;;;3.33;1.00;;;;;;;;;;5043081;28;20184;-72
2023/05/06 17:58:40;;;;;;;3.87;0.87;;;;;;;;;;5042645;28;20208;-72
2023/05/06 18:01:45;;;;;;;2.70;1.07;;;;;;;;;;5055132;28;20212;-72
2023/05/06 18:04:50;;;;;;;3.10;1.20;;;;;;;;;;5054871;28;20172;-72
2023/05/06 18:07:54;;;;;;;1.20;0.60;;;;;;;;;;5054837;28;20184;-72
2023/05/06 18:10:59;;;;;;;2.00;0.70;;;;;;;;;;5054662;28;20527;-72
2023/05/06 18:14:03;;;;;;;2.83;0.80;;;;;;;;;;5054489;28;20184;-72
2023/05/06 18:17:07;;;;;;;1.10;0.73;;;;;;;;;;5054627;28;20185;-72
2023/05/06 18:20:12;;;;;;;1.80;0.80;;;;;;;;;;5041845;28;20227;-72
2023/05/06 18:23:16;;;;;;;2.30;0.80;;;;;;;;;;5040937;28;20211;-72
2023/05/06 18:26:20;;;;;;;0.80;0.73;;;;;;;;;;5054489;28;20623;-72
2023/05/06 18:29:26;;;;;;;1.63;0.80;;;;;;;;;;5054387;28;20535;-72